createdAt,value
2023-05-18T00:05:02.783Z,57.12
2023-05-18T00:15:27.974Z,57.73
2023-05-18T00:25:52.966Z,58.53
2023-05-18T00:36:22.088Z,59.51
2023-05-18T00:46:50.630Z,60.25
2023-05-18T00:57:19.604Z,60.99
2023-05-18T01:07:45.510Z,61.70
2023-05-18T01:18:35.227Z,74.82
2023-05-18T01:29:03.486Z,72.02
2023-05-18T01:39:29.129Z,63.47
2023-05-18T01:50:00.335Z,51.10
2023-05-18T02:00:28.667Z,49.09
2023-05-18T02:10:54.847Z,50.83
2023-05-18T02:21:20.449Z,52.83
2023-05-18T02:31:46.311Z,54.89
2023-05-18T02:42:13.457Z,56.44
2023-05-18T02:52:40.023Z,57.76
2023-05-18T03:03:06.233Z,58.96
2023-05-18T03:13:33.447Z,60.02
2023-05-18T03:24:01.606Z,60.97
2023-05-18T03:34:27.817Z,74.58
2023-05-18T03:44:54.080Z,71.61
2023-05-18T03:55:24.890Z,63.95
2023-05-18T04:05:52.314Z,52.39
2023-05-18T04:16:40.789Z,50.68
2023-05-18T04:27:09.977Z,53.27
2023-05-18T04:38:07.472Z,55.96
2023-05-18T04:48:33.787Z,57.49
2023-05-18T04:59:03.036Z,58.61
2023-05-18T05:09:59.004Z,59.07
2023-05-18T05:20:27.917Z,59.22
2023-05-18T05:30:54.496Z,60.50
2023-05-18T05:41:40.664Z,61.59
2023-05-18T05:52:05.976Z,72.21
2023-05-18T06:02:34.556Z,66.03
2023-05-18T06:13:01.399Z,52.71
2023-05-18T06:23:48.911Z,50.44
2023-05-18T06:34:43.245Z,51.46
2023-05-18T06:45:09.287Z,52.03
2023-05-18T06:55:58.590Z,51.24
2023-05-18T07:06:25.805Z,50.81
2023-05-18T07:16:50.929Z,50.91
2023-05-18T07:27:16.497Z,50.90
2023-05-18T07:38:02.416Z,50.64
2023-05-18T07:48:27.215Z,51.10
2023-05-18T07:58:55.150Z,51.14
2023-05-18T08:09:20.030Z,50.92
2023-05-18T08:19:44.663Z,50.07
2023-05-18T08:30:21.989Z,48.64
2023-05-18T08:41:43.311Z,47.84
2023-05-18T08:52:09.343Z,47.27
2023-05-18T09:02:38.768Z,48.01
2023-05-18T09:13:10.827Z,46.96
2023-05-18T09:24:36.404Z,46.63
2023-05-18T09:35:23.260Z,46.68
2023-05-18T09:45:50.934Z,46.12
2023-05-18T09:56:18.194Z,45.24
2023-05-18T10:06:52.588Z,44.52
2023-05-18T10:17:22.738Z,44.88
2023-05-18T10:27:50.375Z,43.60
2023-05-18T10:38:20.215Z,43.28
2023-05-18T10:48:49.033Z,43.67
2023-05-18T10:59:15.486Z,44.41
2023-05-18T11:09:45.716Z,43.38
2023-05-18T11:20:15.032Z,42.52
2023-05-18T11:30:52.137Z,43.42
2023-05-18T11:41:29.827Z,43.53
2023-05-18T11:52:03.453Z,43.10
2023-05-18T12:02:35.698Z,42.00
2023-05-18T12:13:02.717Z,42.42
2023-05-18T12:23:42.658Z,42.71
2023-05-18T12:34:08.171Z,41.94
2023-05-18T12:44:36.017Z,42.02
2023-05-18T12:55:05.811Z,41.39
2023-05-18T13:05:31.219Z,41.65
2023-05-18T13:16:00.075Z,42.07
2023-05-18T13:26:27.409Z,41.89
2023-05-18T13:36:52.504Z,42.44
2023-05-18T13:47:18.325Z,41.59
2023-05-18T13:57:46.183Z,41.66
2023-05-18T14:08:11.562Z,42.09
2023-05-18T14:18:37.756Z,41.80
2023-05-18T14:29:06.595Z,41.19
2023-05-18T14:39:32.666Z,40.26
2023-05-18T14:49:58.006Z,39.76
2023-05-18T15:01:04.737Z,39.17
2023-05-18T15:11:49.781Z,38.43
2023-05-18T15:22:16.102Z,38.16
2023-05-18T15:32:46.398Z,38.52
2023-05-18T15:43:11.792Z,36.41
2023-05-18T15:53:36.957Z,36.13
2023-05-18T16:04:02.185Z,37.37
2023-05-18T16:14:26.447Z,37.44
2023-05-18T16:24:51.473Z,37.17
2023-05-18T16:35:16.429Z,37.53
2023-05-18T16:46:21.277Z,37.08
2023-05-18T16:56:46.180Z,37.09
2023-05-18T17:08:11.878Z,37.21
2023-05-18T17:19:41.506Z,37.12
2023-05-18T17:30:10.469Z,37.01
2023-05-18T17:41:12.869Z,37.24
2023-05-18T17:51:38.637Z,35.73
2023-05-18T18:02:05.115Z,35.21
2023-05-18T18:12:35.138Z,35.46
2023-05-18T18:23:02.139Z,35.94
2023-05-18T18:33:27.561Z,36.68
2023-05-18T18:43:55.466Z,38.31
2023-05-18T18:54:20.837Z,39.77
2023-05-18T19:04:54.633Z,41.54
2023-05-18T19:15:21.712Z,43.15
2023-05-18T19:25:46.628Z,44.41
2023-05-18T19:42:49.940Z,47.02
2023-05-18T19:53:15.285Z,47.87
2023-05-18T20:03:43.185Z,48.47
2023-05-18T20:14:08.336Z,49.04
2023-05-18T20:24:33.358Z,49.55
2023-05-18T20:34:58.149Z,50.05
2023-05-18T20:45:23.463Z,50.33
2023-05-18T20:55:49.163Z,50.21
2023-05-18T21:06:14.623Z,51.59
2023-05-18T21:16:41.123Z,52.58
2023-05-18T21:27:07.058Z,53.36
2023-05-18T21:37:35.677Z,54.10
2023-05-18T21:48:01.913Z,54.59
2023-05-18T21:58:27.550Z,55.04
2023-05-18T22:08:52.770Z,55.42
2023-05-18T22:19:17.991Z,55.88
2023-05-18T22:29:42.919Z,56.59
2023-05-18T22:40:10.410Z,57.28
2023-05-18T22:50:36.300Z,57.83
2023-05-18T23:01:01.026Z,58.48
2023-05-18T23:11:25.847Z,59.00
2023-05-18T23:21:50.750Z,59.47
2023-05-18T23:32:16.057Z,59.24
2023-05-18T23:43:33.257Z,59.99
2023-05-18T23:54:35.302Z,60.69
